createdAt,value
2018-07-20T00:01:51.362Z,49.08
2018-07-20T00:04:19.974Z,49.30
2018-07-20T00:06:48.833Z,48.70
2018-07-20T00:09:17.495Z,48.96
2018-07-20T00:11:46.971Z,49.48
2018-07-20T00:14:16.135Z,49.92
2018-07-20T00:16:46.041Z,49.84
2018-07-20T00:19:14.710Z,49.71
2018-07-20T00:21:43.406Z,49.85
2018-07-20T00:24:12.024Z,50.02
2018-07-20T00:26:40.974Z,51.06
2018-07-20T00:29:09.556Z,50.74
2018-07-20T00:31:38.247Z,50.95
2018-07-20T00:34:06.860Z,50.79
2018-07-20T00:36:35.689Z,51.14
2018-07-20T00:39:05.941Z,51.15
2018-07-20T00:41:34.589Z,51.12
2018-07-20T00:44:03.161Z,51.82
2018-07-20T00:46:32.050Z,51.61
2018-07-20T00:49:00.966Z,52.28
2018-07-20T00:51:29.661Z,52.75
2018-07-20T00:53:58.925Z,52.16
2018-07-20T00:56:27.864Z,52.67
2018-07-20T00:58:57.423Z,52.93
2018-07-20T01:01:26.313Z,53.26
2018-07-20T01:03:54.978Z,53.16
2018-07-20T01:06:24.192Z,53.97
2018-07-20T01:08:53.495Z,53.94
2018-07-20T01:11:22.390Z,54.26
2018-07-20T01:13:51.283Z,54.11
2018-07-20T01:16:20.229Z,54.96
2018-07-20T01:18:48.827Z,54.76
2018-07-20T01:21:17.793Z,54.88
2018-07-20T01:23:46.496Z,55.17
2018-07-20T01:26:15.433Z,55.78
2018-07-20T01:28:44.799Z,55.49
2018-07-20T01:31:14.198Z,55.91
2018-07-20T01:33:43.448Z,56.22
2018-07-20T01:36:12.260Z,56.17
2018-07-20T01:38:42.438Z,56.31
2018-07-20T01:41:11.348Z,56.56
2018-07-20T01:43:40.546Z,57.32
2018-07-20T01:46:10.209Z,56.98
2018-07-20T01:48:38.864Z,56.87
2018-07-20T01:51:07.448Z,56.79
2018-07-20T01:53:36.441Z,57.25
2018-07-20T01:56:05.081Z,56.92
2018-07-20T01:58:33.709Z,57.91
2018-07-20T02:01:02.746Z,58.09
2018-07-20T02:03:31.612Z,58.19
2018-07-20T02:06:00.594Z,58.08
2018-07-20T02:08:29.542Z,58.03
2018-07-20T02:11:00.104Z,58.50
2018-07-20T02:13:30.849Z,59.00
2018-07-20T02:15:59.973Z,59.38
2018-07-20T02:18:28.583Z,59.65
2018-07-20T02:20:57.805Z,59.93
2018-07-20T02:23:27.368Z,58.99
2018-07-20T02:25:56.048Z,59.37
2018-07-20T02:28:25.068Z,60.88
2018-07-20T02:30:53.667Z,61.27
2018-07-20T02:33:23.459Z,60.44
2018-07-20T02:35:52.129Z,58.38
2018-07-20T02:38:22.685Z,59.22
2018-07-20T02:40:51.630Z,60.27
2018-07-20T02:43:21.652Z,60.90
2018-07-20T02:45:50.340Z,61.51
2018-07-20T02:48:19.314Z,62.15
2018-07-20T02:50:48.018Z,63.43
2018-07-20T02:53:16.996Z,64.35
2018-07-20T02:55:46.006Z,65.15
2018-07-20T02:58:14.737Z,66.51
2018-07-20T03:00:43.377Z,67.30
2018-07-20T03:03:12.479Z,66.82
2018-07-20T03:05:41.178Z,67.69
2018-07-20T03:08:10.240Z,67.61
2018-07-20T03:10:39.650Z,67.37
2018-07-20T03:13:08.436Z,66.37
2018-07-20T03:15:38.656Z,66.83
2018-07-20T03:18:07.296Z,66.64
2018-07-20T03:20:35.985Z,66.61
2018-07-20T03:23:04.615Z,67.05
2018-07-20T03:25:33.198Z,66.51
2018-07-20T03:28:02.164Z,67.16
2018-07-20T03:30:30.758Z,67.23
2018-07-20T03:33:00.071Z,66.64
2018-07-20T03:35:28.685Z,66.58
2018-07-20T03:37:57.306Z,66.13
2018-07-20T03:40:26.394Z,66.64
2018-07-20T03:42:55.161Z,66.28
2018-07-20T03:45:23.793Z,66.08
2018-07-20T03:47:52.832Z,65.61
2018-07-20T03:50:21.721Z,66.12
2018-07-20T03:52:50.816Z,65.76
2018-07-20T03:55:20.016Z,65.68
2018-07-20T03:57:48.704Z,65.64
2018-07-20T04:00:17.743Z,66.41
2018-07-20T04:02:46.369Z,66.56
2018-07-20T04:05:15.345Z,66.02
2018-07-20T04:07:43.936Z,66.68
2018-07-20T04:10:12.591Z,66.81
2018-07-20T04:12:41.198Z,67.22
2018-07-20T04:15:09.857Z,66.60
2018-07-20T04:17:42.659Z,66.36
2018-07-20T04:20:11.566Z,66.23
2018-07-20T04:22:40.164Z,66.80
2018-07-20T04:25:08.828Z,66.33
2018-07-20T04:27:37.770Z,66.60
2018-07-20T04:30:09.784Z,66.12
2018-07-20T04:32:38.372Z,65.72
2018-07-20T04:35:08.547Z,65.49
2018-07-20T04:37:37.831Z,64.11
2018-07-20T04:40:07.441Z,63.22
2018-07-20T04:42:37.252Z,62.85
2018-07-20T04:45:07.523Z,63.55
2018-07-20T04:47:36.370Z,63.75
2018-07-20T04:50:06.889Z,63.63
2018-07-20T04:52:36.756Z,63.37
2018-07-20T04:55:06.071Z,63.38
2018-07-20T04:57:36.184Z,62.27
2018-07-20T05:00:06.399Z,62.77
2018-07-20T05:02:35.712Z,62.13
2018-07-20T05:05:05.757Z,61.02
2018-07-20T05:07:36.174Z,60.69
2018-07-20T05:10:05.049Z,60.73
2018-07-20T05:12:33.662Z,59.24
2018-07-20T05:15:02.280Z,59.25
2018-07-20T05:17:30.935Z,58.01
2018-07-20T05:19:59.538Z,58.58
2018-07-20T05:22:28.107Z,58.50
2018-07-20T05:24:56.830Z,59.20
2018-07-20T05:27:25.446Z,59.32
2018-07-20T05:29:54.389Z,58.57
2018-07-20T05:32:23.445Z,57.66
2018-07-20T05:34:52.688Z,57.65
2018-07-20T05:37:21.294Z,56.68
2018-07-20T05:39:49.953Z,57.27
2018-07-20T05:42:19.201Z,56.33
2018-07-20T05:44:48.014Z,55.44
2018-07-20T05:47:17.680Z,55.56
2018-07-20T05:49:46.759Z,55.68
2018-07-20T05:52:15.373Z,54.65
2018-07-20T05:54:44.030Z,54.23
2018-07-20T05:57:12.919Z,54.57
2018-07-20T05:59:41.698Z,54.58
2018-07-20T06:02:12.448Z,53.89
2018-07-20T06:04:41.395Z,54.15
2018-07-20T06:07:10.435Z,54.05
2018-07-20T06:09:39.628Z,53.49
2018-07-20T06:12:08.773Z,54.74
2018-07-20T06:14:37.401Z,53.25
2018-07-20T06:17:06.411Z,53.13
2018-07-20T06:19:35.329Z,53.34
2018-07-20T06:22:05.527Z,51.88
2018-07-20T06:24:34.321Z,52.58
2018-07-20T06:27:03.112Z,52.94
2018-07-20T06:29:32.463Z,53.41
2018-07-20T06:32:01.407Z,53.28
2018-07-20T06:34:30.004Z,52.51
2018-07-20T06:36:58.706Z,52.12
2018-07-20T06:39:27.341Z,50.68
2018-07-20T06:41:56.039Z,49.65
2018-07-20T06:44:24.748Z,49.51
2018-07-20T06:46:53.729Z,50.22
2018-07-20T06:49:22.464Z,49.48
2018-07-20T06:51:52.244Z,49.32
2018-07-20T06:54:21.095Z,49.02
2018-07-20T06:56:50.219Z,49.39
2018-07-20T06:59:19.224Z,49.41
2018-07-20T07:01:48.200Z,46.84
2018-07-20T07:04:17.108Z,46.82
2018-07-20T07:06:45.794Z,46.57
2018-07-20T07:09:15.057Z,45.42
2018-07-20T07:11:43.668Z,46.42
2018-07-20T07:14:12.977Z,45.79
2018-07-20T07:16:41.594Z,44.31
2018-07-20T07:19:10.549Z,44.50
2018-07-20T07:21:39.230Z,43.87
2018-07-20T07:24:08.597Z,44.40
2018-07-20T07:26:37.225Z,44.82
2018-07-20T07:29:05.979Z,45.16
2018-07-20T07:31:34.862Z,44.87
2018-07-20T07:34:03.840Z,44.91
2018-07-20T07:36:32.880Z,44.23
2018-07-20T07:39:01.514Z,43.87
2018-07-20T07:41:30.475Z,44.32
2018-07-20T07:43:59.470Z,43.95
2018-07-20T07:46:28.116Z,42.43
2018-07-20T07:48:57.418Z,41.52
2018-07-20T07:51:26.069Z,42.80
2018-07-20T07:53:54.721Z,42.13
2018-07-20T07:56:23.929Z,42.17
2018-07-20T07:58:52.593Z,42.86
2018-07-20T08:01:21.249Z,42.67
2018-07-20T08:03:49.875Z,42.10
2018-07-20T08:06:18.794Z,41.76
2018-07-20T08:08:47.472Z,41.14
2018-07-20T08:11:16.476Z,41.63
2018-07-20T08:13:45.572Z,40.97
2018-07-20T08:16:14.520Z,40.35
2018-07-20T08:18:43.445Z,41.57
2018-07-20T08:21:12.122Z,41.02
2018-07-20T08:23:41.135Z,40.50
2018-07-20T08:26:10.128Z,40.32
2018-07-20T08:28:38.765Z,38.69
2018-07-20T08:31:07.378Z,37.28
2018-07-20T08:33:36.325Z,36.57
2018-07-20T08:36:05.390Z,36.18
2018-07-20T08:38:34.517Z,35.64
2018-07-20T08:41:03.129Z,35.37
2018-07-20T08:43:32.062Z,33.85
2018-07-20T08:46:00.777Z,34.06
2018-07-20T08:48:29.408Z,32.18
2018-07-20T08:50:58.422Z,32.43
2018-07-20T08:53:27.296Z,32.03
2018-07-20T08:55:56.120Z,32.19
2018-07-20T08:58:25.126Z,30.46
2018-07-20T09:00:53.783Z,30.56
2018-07-20T09:03:22.468Z,31.13
2018-07-20T09:05:51.477Z,31.32
2018-07-20T09:08:20.082Z,30.89
2018-07-20T09:10:48.745Z,30.78
2018-07-20T09:13:17.428Z,30.74
2018-07-20T09:15:46.703Z,29.90
2018-07-20T09:18:15.337Z,29.12
2018-07-20T09:20:44.113Z,29.02
2018-07-20T09:23:12.784Z,29.10
2018-07-20T09:25:41.674Z,29.31
2018-07-20T09:28:10.693Z,29.07
2018-07-20T09:30:41.545Z,29.61
2018-07-20T09:33:10.195Z,29.34
2018-07-20T09:35:39.401Z,30.02
2018-07-20T09:38:08.349Z,29.17
2018-07-20T09:40:37.039Z,29.45
2018-07-20T09:43:05.687Z,31.29
2018-07-20T09:45:34.372Z,31.81
2018-07-20T09:48:03.099Z,32.36
2018-07-20T09:50:31.742Z,32.81
2018-07-20T09:53:00.476Z,33.53
2018-07-20T09:55:29.190Z,33.59
2018-07-20T09:57:58.105Z,32.61
2018-07-20T10:01:03.418Z,33.01
2018-07-20T10:03:32.346Z,32.73
2018-07-20T10:06:01.274Z,33.53
2018-07-20T10:08:30.066Z,34.14
2018-07-20T10:10:59.029Z,34.06
2018-07-20T10:13:27.692Z,33.82
2018-07-20T10:15:57.725Z,33.55
2018-07-20T10:18:26.374Z,33.48
2018-07-20T10:20:55.568Z,32.52
2018-07-20T10:23:24.602Z,34.47
2018-07-20T10:25:53.310Z,33.45
2018-07-20T10:28:22.276Z,34.50
2018-07-20T10:30:51.265Z,34.20
2018-07-20T10:33:19.926Z,34.13
2018-07-20T10:35:50.173Z,32.90
2018-07-20T10:38:18.875Z,33.84
2018-07-20T10:40:47.988Z,33.28
2018-07-20T10:43:16.641Z,31.63
2018-07-20T10:45:45.663Z,32.43
2018-07-20T10:48:14.796Z,31.56
2018-07-20T10:50:43.448Z,31.69
2018-07-20T10:53:12.332Z,30.96
2018-07-20T10:55:41.026Z,29.83
2018-07-20T10:58:09.947Z,30.68
2018-07-20T11:00:38.571Z,29.73
2018-07-20T11:03:08.525Z,29.74
2018-07-20T11:05:37.763Z,30.27
2018-07-20T11:08:06.599Z,31.61
2018-07-20T11:10:35.236Z,32.90
2018-07-20T11:13:04.874Z,32.91
2018-07-20T11:15:33.816Z,31.29
2018-07-20T11:18:02.529Z,31.86
2018-07-20T11:20:31.572Z,31.33
2018-07-20T11:23:00.535Z,31.38
2018-07-20T11:25:29.192Z,30.62
2018-07-20T11:27:58.285Z,31.75
2018-07-20T11:30:27.297Z,30.84
2018-07-20T11:32:55.993Z,32.13
2018-07-20T11:35:24.733Z,29.75
2018-07-20T11:37:54.025Z,29.85
2018-07-20T11:40:23.017Z,30.35
2018-07-20T11:42:52.014Z,29.84
2018-07-20T11:45:21.044Z,31.30
2018-07-20T11:47:49.729Z,30.42
2018-07-20T11:50:18.794Z,31.72
2018-07-20T11:52:47.426Z,30.65
2018-07-20T11:55:16.111Z,30.35
2018-07-20T11:57:44.795Z,28.26
2018-07-20T12:00:13.678Z,29.88
2018-07-20T12:02:42.393Z,29.83
2018-07-20T12:05:11.103Z,30.09
2018-07-20T12:07:39.755Z,29.97
2018-07-20T12:10:09.029Z,30.42
2018-07-20T12:12:38.091Z,30.65
2018-07-20T12:15:07.119Z,27.81
2018-07-20T12:17:36.200Z,24.04
2018-07-20T12:20:04.937Z,22.00
2018-07-20T12:22:33.542Z,20.45
2018-07-20T12:25:02.725Z,21.64
2018-07-20T12:27:31.715Z,22.63
2018-07-20T12:30:00.395Z,20.84
2018-07-20T12:32:29.050Z,18.57
2018-07-20T12:34:58.083Z,16.05
2018-07-20T12:37:26.703Z,14.92
2018-07-20T12:39:55.552Z,13.91
2018-07-20T12:42:24.318Z,14.48
2018-07-20T12:44:52.937Z,13.43
2018-07-20T12:47:22.089Z,15.27
2018-07-20T12:49:51.283Z,13.00
2018-07-20T12:52:20.347Z,13.63
2018-07-20T12:54:48.971Z,14.44
2018-07-20T12:57:17.652Z,13.11
2018-07-20T12:59:46.855Z,15.92
2018-07-20T13:02:17.941Z,17.52
2018-07-20T13:04:46.886Z,19.73
2018-07-20T13:07:16.128Z,21.97
2018-07-20T13:09:45.279Z,23.41
2018-07-20T13:12:13.998Z,22.53
2018-07-20T13:14:42.572Z,20.68
2018-07-20T13:17:11.235Z,19.87
2018-07-20T13:19:39.887Z,20.96
2018-07-20T13:22:08.822Z,23.33
2018-07-20T13:24:37.520Z,23.48
2018-07-20T13:27:06.150Z,23.07
2018-07-20T13:29:34.755Z,20.68
2018-07-20T13:32:03.488Z,18.49
2018-07-20T13:34:32.144Z,15.69
2018-07-20T13:37:01.017Z,14.06
2018-07-20T13:39:30.027Z,12.38
2018-07-20T13:41:59.190Z,11.63
2018-07-20T13:44:27.810Z,11.68
2018-07-20T13:46:56.418Z,15.16
2018-07-20T13:49:25.387Z,13.86
2018-07-20T13:51:54.597Z,12.53
2018-07-20T13:54:23.641Z,13.22
2018-07-20T13:56:52.718Z,11.96
2018-07-20T13:59:21.667Z,11.40
2018-07-20T14:01:56.973Z,12.94
2018-07-20T14:04:26.053Z,11.42
2018-07-20T14:06:54.685Z,14.11
2018-07-20T14:09:23.397Z,13.83
2018-07-20T14:11:52.249Z,9.53
2018-07-20T14:14:21.038Z,12.68
2018-07-20T14:16:49.910Z,14.36
2018-07-20T14:19:18.843Z,16.04
2018-07-20T14:21:47.757Z,15.54
2018-07-20T14:24:16.490Z,14.76
2018-07-20T14:26:45.210Z,16.02
2018-07-20T14:29:14.069Z,15.40
2018-07-20T14:31:42.852Z,15.34
2018-07-20T14:34:11.779Z,16.35
2018-07-20T14:36:40.733Z,16.06
2018-07-20T14:39:11.764Z,17.27
2018-07-20T14:41:40.839Z,17.53
2018-07-20T14:44:09.562Z,18.40
2018-07-20T14:46:38.556Z,18.99
2018-07-20T14:49:07.342Z,19.48
2018-07-20T14:51:36.269Z,19.99
2018-07-20T14:54:05.023Z,20.85
2018-07-20T14:56:34.005Z,21.90
2018-07-20T14:59:02.769Z,23.19
2018-07-20T15:01:31.456Z,23.86
2018-07-20T15:04:00.102Z,23.18
2018-07-20T15:06:29.135Z,23.62
2018-07-20T15:08:57.853Z,23.82
2018-07-20T15:11:26.806Z,23.76
2018-07-20T15:13:55.463Z,24.51
2018-07-20T15:16:24.703Z,25.50
2018-07-20T15:18:53.326Z,25.23
2018-07-20T15:21:21.961Z,25.87
2018-07-20T15:23:50.734Z,26.75
2018-07-20T15:26:19.645Z,26.99
2018-07-20T15:28:48.521Z,26.43
2018-07-20T15:31:17.821Z,26.77
2018-07-20T15:33:46.471Z,27.30
2018-07-20T15:36:15.133Z,27.11
2018-07-20T15:38:44.118Z,27.81
2018-07-20T15:41:13.098Z,27.77
2018-07-20T15:43:42.484Z,28.50
2018-07-20T15:46:11.686Z,27.82
2018-07-20T15:48:40.549Z,28.43
2018-07-20T15:51:09.204Z,27.50
2018-07-20T15:53:38.026Z,28.33
2018-07-20T15:56:06.746Z,28.60
2018-07-20T15:58:35.390Z,29.59
2018-07-20T16:01:04.456Z,28.92
2018-07-20T16:03:33.075Z,29.28
2018-07-20T16:06:01.825Z,29.44
2018-07-20T16:08:31.134Z,28.84
2018-07-20T16:10:59.759Z,29.19
2018-07-20T16:13:28.710Z,30.12
2018-07-20T16:15:57.388Z,30.48
2018-07-20T16:18:25.998Z,30.33
2018-07-20T16:20:54.862Z,29.74
2018-07-20T16:23:23.774Z,29.96
2018-07-20T16:25:52.805Z,30.37
2018-07-20T16:28:21.399Z,31.04
2018-07-20T16:30:50.416Z,31.00
2018-07-20T16:33:19.389Z,30.53
2018-07-20T16:35:48.365Z,30.81
2018-07-20T16:38:16.985Z,31.16
2018-07-20T16:40:45.796Z,31.07
2018-07-20T16:43:14.486Z,30.93
2018-07-20T16:45:43.125Z,31.14
2018-07-20T16:48:11.753Z,32.00
2018-07-20T16:50:40.403Z,31.81
2018-07-20T16:53:09.170Z,31.68
2018-07-20T16:55:37.772Z,31.97
2018-07-20T16:58:06.476Z,32.45
2018-07-20T17:00:35.611Z,31.59
2018-07-20T17:03:04.273Z,31.39
2018-07-20T17:05:32.893Z,30.67
2018-07-20T17:08:02.591Z,31.72
2018-07-20T17:10:31.320Z,32.04
2018-07-20T17:13:00.285Z,31.95
2018-07-20T17:15:29.047Z,31.42
2018-07-20T17:17:57.788Z,32.06
2018-07-20T17:20:26.713Z,32.09
2018-07-20T17:22:55.714Z,33.31
2018-07-20T17:25:24.369Z,33.10
2018-07-20T17:27:53.312Z,32.64
2018-07-20T17:30:22.211Z,32.67
2018-07-20T17:32:51.193Z,32.48
2018-07-20T17:35:19.799Z,32.57
2018-07-20T17:37:48.715Z,32.61
2018-07-20T17:40:17.300Z,32.58
2018-07-20T17:42:45.951Z,32.40
2018-07-20T17:45:15.043Z,32.29
2018-07-20T17:47:44.040Z,32.35
2018-07-20T17:50:13.342Z,33.52
2018-07-20T17:52:42.336Z,33.48
2018-07-20T17:55:10.998Z,32.75
2018-07-20T17:57:39.938Z,32.52
2018-07-20T18:00:08.601Z,32.88
2018-07-20T18:02:37.221Z,33.72
2018-07-20T18:05:06.634Z,33.45
2018-07-20T18:07:35.330Z,33.57
2018-07-20T18:10:05.004Z,33.99
2018-07-20T18:12:33.708Z,34.29
2018-07-20T18:15:03.307Z,33.48
2018-07-20T18:17:32.427Z,33.54
2018-07-20T18:20:01.574Z,33.76
2018-07-20T18:22:30.330Z,33.84
2018-07-20T18:24:59.369Z,33.76
2018-07-20T18:27:28.368Z,34.25
2018-07-20T18:29:57.060Z,34.73
2018-07-20T18:32:26.051Z,34.71
2018-07-20T18:34:55.041Z,34.94
2018-07-20T18:37:23.833Z,34.83
2018-07-20T18:39:52.447Z,35.68
2018-07-20T18:42:21.075Z,36.17
2018-07-20T18:44:50.070Z,33.71
2018-07-20T18:47:18.708Z,32.80
2018-07-20T18:49:47.303Z,33.14
2018-07-20T18:52:15.954Z,32.87
2018-07-20T18:54:44.984Z,32.68
2018-07-20T18:57:13.734Z,31.88
2018-07-20T18:59:46.746Z,32.26
2018-07-20T19:02:15.877Z,32.97
2018-07-20T19:04:44.765Z,32.40
2018-07-20T19:07:13.733Z,32.62
2018-07-20T19:09:43.484Z,33.71
2018-07-20T19:12:13.505Z,33.15
2018-07-20T19:14:43.238Z,33.59
2018-07-20T19:17:13.035Z,32.85
2018-07-20T19:19:42.652Z,32.91
2018-07-20T19:22:11.935Z,32.64
2018-07-20T19:24:41.081Z,32.26
2018-07-20T19:27:10.613Z,32.11
2018-07-20T19:29:39.677Z,33.08
2018-07-20T19:32:09.600Z,33.83
2018-07-20T19:34:38.414Z,32.51
2018-07-20T19:37:07.230Z,32.72
2018-07-20T19:39:35.932Z,32.93
2018-07-20T19:42:04.734Z,33.66
2018-07-20T19:44:34.020Z,33.49
2018-07-20T19:47:02.654Z,33.02
2018-07-20T19:49:31.460Z,33.49
2018-07-20T19:52:00.098Z,34.24
2018-07-20T19:54:29.262Z,33.92
2018-07-20T19:56:58.299Z,34.16
2018-07-20T19:59:27.118Z,33.55
2018-07-20T20:01:56.102Z,33.29
2018-07-20T20:04:25.112Z,33.47
2018-07-20T20:06:54.179Z,33.90
2018-07-20T20:09:23.109Z,33.21
2018-07-20T20:11:51.835Z,33.28
2018-07-20T20:14:21.254Z,34.63
2018-07-20T20:16:50.189Z,33.19
2018-07-20T20:19:19.193Z,34.44
2018-07-20T20:21:48.760Z,34.48
2018-07-20T20:24:17.419Z,34.79
2018-07-20T20:26:46.273Z,34.29
2018-07-20T20:29:14.968Z,34.33
2018-07-20T20:31:44.023Z,35.31
2018-07-20T20:34:12.764Z,34.76
2018-07-20T20:36:41.511Z,35.57
2018-07-20T20:39:12.472Z,35.89
2018-07-20T20:41:42.731Z,35.46
2018-07-20T20:44:11.432Z,36.12
2018-07-20T20:46:40.779Z,35.70
2018-07-20T20:49:09.827Z,35.54
2018-07-20T20:51:38.548Z,35.37
2018-07-20T20:54:08.379Z,36.32
2018-07-20T20:56:37.060Z,36.23
2018-07-20T20:59:05.933Z,36.16
2018-07-20T21:01:34.940Z,35.60
2018-07-20T21:04:04.702Z,36.39
2018-07-20T21:06:33.686Z,35.58
2018-07-20T21:09:02.380Z,35.40
2018-07-20T21:11:31.004Z,35.62
2018-07-20T21:13:59.659Z,35.23
2018-07-20T21:16:29.354Z,35.11
2018-07-20T21:18:59.876Z,35.34
2018-07-20T21:21:28.523Z,35.64
2018-07-20T21:23:57.174Z,35.05
2018-07-20T21:26:25.907Z,35.02
2018-07-20T21:28:54.553Z,34.80
2018-07-20T21:31:24.017Z,34.66
2018-07-20T21:33:54.317Z,35.19
2018-07-20T21:36:23.140Z,35.16
2018-07-20T21:38:52.135Z,34.20
2018-07-20T21:41:20.814Z,34.85
2018-07-20T21:43:49.498Z,34.48
2018-07-20T21:46:18.163Z,35.34
2018-07-20T21:48:48.063Z,35.07
2018-07-20T21:51:16.920Z,34.89
2018-07-20T21:53:46.259Z,35.80
2018-07-20T21:56:15.082Z,35.38
2018-07-20T21:58:45.748Z,35.67
2018-07-20T22:01:16.584Z,35.42
2018-07-20T22:03:46.001Z,35.17
2018-07-20T22:06:15.461Z,34.73
2018-07-20T22:08:44.955Z,35.64
2018-07-20T22:11:13.596Z,34.87
2018-07-20T22:13:44.094Z,35.19
2018-07-20T22:16:13.526Z,35.73
2018-07-20T22:18:43.713Z,35.44
2018-07-20T22:21:12.975Z,35.01
2018-07-20T22:23:42.696Z,34.91
2018-07-20T22:26:11.904Z,35.14
2018-07-20T22:28:41.820Z,35.22
2018-07-20T22:31:11.833Z,35.34
2018-07-20T22:33:41.118Z,36.18
2018-07-20T22:36:09.809Z,35.94
2018-07-20T22:38:38.531Z,36.39
2018-07-20T22:41:08.167Z,36.49
2018-07-20T22:43:37.150Z,36.64
2018-07-20T22:46:06.255Z,36.09
2018-07-20T22:48:35.026Z,36.66
2018-07-20T22:51:03.786Z,36.64
2018-07-20T22:53:32.509Z,36.63
2018-07-20T22:56:01.195Z,37.01
2018-07-20T22:58:30.238Z,36.68
2018-07-20T23:00:58.929Z,37.09
2018-07-20T23:03:27.876Z,37.07
2018-07-20T23:08:36.751Z,38.19
2018-07-20T23:11:07.249Z,37.37
2018-07-20T23:13:37.749Z,37.93
2018-07-20T23:16:08.367Z,37.93
2018-07-20T23:18:38.573Z,38.38
2018-07-20T23:21:08.198Z,38.51
2018-07-20T23:23:37.539Z,39.22
2018-07-20T23:26:06.417Z,39.81
2018-07-20T23:28:35.289Z,40.02
2018-07-20T23:31:04.211Z,41.03
2018-07-20T23:33:34.806Z,41.37
2018-07-20T23:36:06.035Z,42.00
2018-07-20T23:38:35.324Z,42.16
2018-07-20T23:41:04.396Z,42.67
2018-07-20T23:43:34.036Z,43.16
2018-07-20T23:46:03.054Z,42.95
2018-07-20T23:48:32.400Z,43.22
2018-07-20T23:51:02.490Z,44.00
2018-07-20T23:53:32.293Z,43.67
2018-07-20T23:56:02.922Z,43.63
2018-07-20T23:58:32.160Z,44.42
